sensor_id;sensor_type;location;lat;lon;timestamp;P1;durP1;ratioP1;P2;durP2;ratioP2
49678;SDS011;35570;48.218;16.326;2023-06-22T00:01:00;8.02;;;3.50;;
49678;SDS011;35570;48.218;16.326;2023-06-22T00:03:26;6.38;;;3.28;;
49678;SDS011;35570;48.218;16.326;2023-06-22T00:05:52;11.50;;;3.80;;
49678;SDS011;35570;48.218;16.326;2023-06-22T00:08:18;7.40;;;3.75;;
49678;SDS011;35570;48.218;16.326;2023-06-22T00:10:44;8.52;;;3.53;;
49678;SDS011;35570;48.218;16.326;2023-06-22T00:13:11;9.45;;;3.90;;
49678;SDS011;35570;48.218;16.326;2023-06-22T00:15:38;7.45;;;3.75;;
49678;SDS011;35570;48.218;16.326;2023-06-22T00:18:06;11.45;;;3.67;;
49678;SDS011;35570;48.218;16.326;2023-06-22T00:20:32;10.30;;;3.58;;
49678;SDS011;35570;48.218;16.326;2023-06-22T00:23:01;9.43;;;3.47;;
49678;SDS011;35570;48.218;16.326;2023-06-22T00:25:31;7.90;;;3.58;;
49678;SDS011;35570;48.218;16.326;2023-06-22T00:27:57;10.70;;;4.65;;
49678;SDS011;35570;48.218;16.326;2023-06-22T00:30:22;10.18;;;4.32;;
49678;SDS011;35570;48.218;16.326;2023-06-22T00:32:48;11.23;;;4.10;;
49678;SDS011;35570;48.218;16.326;2023-06-22T00:35:13;10.20;;;3.90;;
49678;SDS011;35570;48.218;16.326;2023-06-22T00:37:39;11.15;;;4.07;;
49678;SDS011;35570;48.218;16.326;2023-06-22T00:40:09;8.98;;;3.75;;
49678;SDS011;35570;48.218;16.326;2023-06-22T00:42:38;9.07;;;4.22;;
49678;SDS011;35570;48.218;16.326;2023-06-22T00:45:04;14.27;;;4.88;;
49678;SDS011;35570;48.218;16.326;2023-06-22T00:47:30;6.32;;;4.28;;
49678;SDS011;35570;48.218;16.326;2023-06-22T00:49:57;12.40;;;4.07;;
49678;SDS011;35570;48.218;16.326;2023-06-22T00:52:23;13.23;;;8.43;;
49678;SDS011;35570;48.218;16.326;2023-06-22T00:54:54;8.55;;;5.47;;
49678;SDS011;35570;48.218;16.326;2023-06-22T00:57:21;10.50;;;4.40;;
49678;SDS011;35570;48.218;16.326;2023-06-22T00:59:52;10.80;;;4.35;;
49678;SDS011;35570;48.218;16.326;2023-06-22T01:02:19;8.70;;;3.88;;
49678;SDS011;35570;48.218;16.326;2023-06-22T01:04:45;9.63;;;3.65;;
49678;SDS011;35570;48.218;16.326;2023-06-22T01:07:21;8.98;;;3.92;;
49678;SDS011;35570;48.218;16.326;2023-06-22T01:09:52;9.52;;;4.50;;
49678;SDS011;35570;48.218;16.326;2023-06-22T01:12:30;8.45;;;4.10;;
49678;SDS011;35570;48.218;16.326;2023-06-22T01:15:10;13.07;;;4.47;;
49678;SDS011;35570;48.218;16.326;2023-06-22T01:17:40;10.10;;;4.63;;
49678;SDS011;35570;48.218;16.326;2023-06-22T01:20:09;8.05;;;4.88;;
49678;SDS011;35570;48.218;16.326;2023-06-22T01:25:20;11.43;;;4.38;;
49678;SDS011;35570;48.218;16.326;2023-06-22T01:27:58;9.00;;;3.88;;
49678;SDS011;35570;48.218;16.326;2023-06-22T01:30:40;10.00;;;5.60;;
49678;SDS011;35570;48.218;16.326;2023-06-22T01:33:07;7.63;;;4.25;;
49678;SDS011;35570;48.218;16.326;2023-06-22T01:35:38;8.57;;;4.28;;
49678;SDS011;35570;48.218;16.326;2023-06-22T01:38:04;6.90;;;3.65;;
49678;SDS011;35570;48.218;16.326;2023-06-22T01:40:30;10.48;;;3.40;;
49678;SDS011;35570;48.218;16.326;2023-06-22T01:42:58;9.68;;;3.55;;
49678;SDS011;35570;48.218;16.326;2023-06-22T01:45:25;6.00;;;3.30;;
49678;SDS011;35570;48.218;16.326;2023-06-22T01:47:52;7.00;;;3.45;;
49678;SDS011;35570;48.218;16.326;2023-06-22T01:50:19;8.68;;;5.68;;
49678;SDS011;35570;48.218;16.326;2023-06-22T01:52:46;10.63;;;4.60;;
49678;SDS011;35570;48.218;16.326;2023-06-22T01:55:11;7.68;;;4.32;;
49678;SDS011;35570;48.218;16.326;2023-06-22T01:57:37;8.18;;;3.80;;
49678;SDS011;35570;48.218;16.326;2023-06-22T02:00:13;11.25;;;4.30;;
49678;SDS011;35570;48.218;16.326;2023-06-22T02:02:46;12.30;;;6.85;;
49678;SDS011;35570;48.218;16.326;2023-06-22T02:05:25;8.13;;;4.97;;
49678;SDS011;35570;48.218;16.326;2023-06-22T02:08:09;10.38;;;3.83;;
49678;SDS011;35570;48.218;16.326;2023-06-22T02:10:43;6.75;;;3.83;;
49678;SDS011;35570;48.218;16.326;2023-06-22T02:13:10;11.07;;;3.65;;
49678;SDS011;35570;48.218;16.326;2023-06-22T02:15:37;7.00;;;3.55;;
49678;SDS011;35570;48.218;16.326;2023-06-22T02:18:03;6.78;;;3.78;;
49678;SDS011;35570;48.218;16.326;2023-06-22T02:20:30;8.90;;;3.70;;
49678;SDS011;35570;48.218;16.326;2023-06-22T02:22:55;9.20;;;3.33;;
49678;SDS011;35570;48.218;16.326;2023-06-22T02:25:21;8.93;;;2.97;;
49678;SDS011;35570;48.218;16.326;2023-06-22T02:27:47;7.00;;;3.40;;
49678;SDS011;35570;48.218;16.326;2023-06-22T02:30:13;7.93;;;3.47;;
49678;SDS011;35570;48.218;16.326;2023-06-22T02:32:40;6.78;;;3.10;;
49678;SDS011;35570;48.218;16.326;2023-06-22T02:35:07;7.82;;;3.85;;
49678;SDS011;35570;48.218;16.326;2023-06-22T02:37:35;7.30;;;4.20;;
49678;SDS011;35570;48.218;16.326;2023-06-22T02:40:07;9.45;;;4.32;;
49678;SDS011;35570;48.218;16.326;2023-06-22T02:42:36;10.73;;;3.72;;
49678;SDS011;35570;48.218;16.326;2023-06-22T02:45:03;8.60;;;3.75;;
49678;SDS011;35570;48.218;16.326;2023-06-22T02:47:28;10.00;;;4.80;;
49678;SDS011;35570;48.218;16.326;2023-06-22T02:49:54;7.32;;;3.40;;
49678;SDS011;35570;48.218;16.326;2023-06-22T02:52:20;7.95;;;3.50;;
49678;SDS011;35570;48.218;16.326;2023-06-22T02:54:45;8.55;;;4.03;;
49678;SDS011;35570;48.218;16.326;2023-06-22T02:57:11;8.25;;;3.83;;
49678;SDS011;35570;48.218;16.326;2023-06-22T02:59:38;9.35;;;3.90;;
49678;SDS011;35570;48.218;16.326;2023-06-22T03:02:07;11.20;;;4.20;;
49678;SDS011;35570;48.218;16.326;2023-06-22T03:04:36;8.02;;;3.95;;
49678;SDS011;35570;48.218;16.326;2023-06-22T03:07:02;7.70;;;3.65;;
49678;SDS011;35570;48.218;16.326;2023-06-22T03:09:28;10.00;;;3.83;;
49678;SDS011;35570;48.218;16.326;2023-06-22T03:11:54;8.95;;;4.40;;
49678;SDS011;35570;48.218;16.326;2023-06-22T03:14:20;13.25;;;4.65;;
49678;SDS011;35570;48.218;16.326;2023-06-22T03:16:45;11.32;;;6.38;;
49678;SDS011;35570;48.218;16.326;2023-06-22T03:19:11;11.35;;;6.50;;
49678;SDS011;35570;48.218;16.326;2023-06-22T03:21:37;14.55;;;6.07;;
49678;SDS011;35570;48.218;16.326;2023-06-22T03:24:04;12.60;;;5.90;;
49678;SDS011;35570;48.218;16.326;2023-06-22T03:26:30;12.18;;;6.88;;
49678;SDS011;35570;48.218;16.326;2023-06-22T03:28:56;18.83;;;7.20;;
49678;SDS011;35570;48.218;16.326;2023-06-22T03:31:22;16.05;;;7.80;;
49678;SDS011;35570;48.218;16.326;2023-06-22T03:33:48;16.77;;;7.50;;
49678;SDS011;35570;48.218;16.326;2023-06-22T03:36:15;15.10;;;7.25;;
49678;SDS011;35570;48.218;16.326;2023-06-22T03:38:45;16.27;;;9.27;;
49678;SDS011;35570;48.218;16.326;2023-06-22T03:41:14;17.33;;;8.65;;
49678;SDS011;35570;48.218;16.326;2023-06-22T03:43:40;16.65;;;9.93;;
49678;SDS011;35570;48.218;16.326;2023-06-22T03:46:06;20.58;;;10.00;;
49678;SDS011;35570;48.218;16.326;2023-06-22T03:48:32;13.50;;;8.38;;
49678;SDS011;35570;48.218;16.326;2023-06-22T03:51:01;13.55;;;8.63;;
49678;SDS011;35570;48.218;16.326;2023-06-22T03:53:28;10.77;;;6.78;;
49678;SDS011;35570;48.218;16.326;2023-06-22T03:55:53;12.15;;;6.80;;
49678;SDS011;35570;48.218;16.326;2023-06-22T03:58:19;10.73;;;5.40;;
49678;SDS011;35570;48.218;16.326;2023-06-22T04:00:46;8.05;;;5.15;;
49678;SDS011;35570;48.218;16.326;2023-06-22T04:03:12;8.63;;;4.20;;
49678;SDS011;35570;48.218;16.326;2023-06-22T04:05:39;14.27;;;4.47;;
49678;SDS011;35570;48.218;16.326;2023-06-22T04:08:05;11.82;;;4.22;;
49678;SDS011;35570;48.218;16.326;2023-06-22T04:10:31;8.00;;;4.00;;
49678;SDS011;35570;48.218;16.326;2023-06-22T04:12:56;7.28;;;4.20;;
49678;SDS011;35570;48.218;16.326;2023-06-22T04:15:22;7.28;;;4.43;;
49678;SDS011;35570;48.218;16.326;2023-06-22T04:17:48;6.85;;;3.95;;
49678;SDS011;35570;48.218;16.326;2023-06-22T04:20:13;11.25;;;5.55;;
49678;SDS011;35570;48.218;16.326;2023-06-22T04:22:39;9.07;;;5.40;;
49678;SDS011;35570;48.218;16.326;2023-06-22T04:25:05;8.77;;;4.50;;
49678;SDS011;35570;48.218;16.326;2023-06-22T04:27:32;12.43;;;5.25;;
49678;SDS011;35570;48.218;16.326;2023-06-22T04:30:02;11.68;;;4.55;;
49678;SDS011;35570;48.218;16.326;2023-06-22T04:32:28;9.10;;;5.07;;
49678;SDS011;35570;48.218;16.326;2023-06-22T04:34:54;12.48;;;5.50;;
49678;SDS011;35570;48.218;16.326;2023-06-22T04:37:20;13.25;;;4.95;;
49678;SDS011;35570;48.218;16.326;2023-06-22T04:39:48;7.55;;;4.43;;
49678;SDS011;35570;48.218;16.326;2023-06-22T04:42:14;10.30;;;4.95;;
49678;SDS011;35570;48.218;16.326;2023-06-22T04:44:40;11.77;;;6.18;;
49678;SDS011;35570;48.218;16.326;2023-06-22T04:47:06;11.23;;;6.47;;
49678;SDS011;35570;48.218;16.326;2023-06-22T04:49:33;12.70;;;5.75;;
49678;SDS011;35570;48.218;16.326;2023-06-22T04:54:28;12.30;;;7.00;;
49678;SDS011;35570;48.218;16.326;2023-06-22T04:56:54;10.45;;;5.65;;
49678;SDS011;35570;48.218;16.326;2023-06-22T04:59:23;11.65;;;5.53;;
49678;SDS011;35570;48.218;16.326;2023-06-22T05:01:55;9.82;;;5.75;;
49678;SDS011;35570;48.218;16.326;2023-06-22T05:04:24;11.75;;;5.22;;
49678;SDS011;35570;48.218;16.326;2023-06-22T05:06:51;10.38;;;4.50;;
49678;SDS011;35570;48.218;16.326;2023-06-22T05:09:17;10.57;;;4.30;;
49678;SDS011;35570;48.218;16.326;2023-06-22T05:11:43;9.05;;;4.72;;
49678;SDS011;35570;48.218;16.326;2023-06-22T05:14:09;12.55;;;5.53;;
49678;SDS011;35570;48.218;16.326;2023-06-22T05:16:36;7.80;;;4.72;;
49678;SDS011;35570;48.218;16.326;2023-06-22T05:19:02;9.73;;;5.32;;
49678;SDS011;35570;48.218;16.326;2023-06-22T05:21:29;8.35;;;4.28;;
49678;SDS011;35570;48.218;16.326;2023-06-22T05:23:55;13.70;;;4.55;;
49678;SDS011;35570;48.218;16.326;2023-06-22T05:26:25;8.40;;;4.10;;
49678;SDS011;35570;48.218;16.326;2023-06-22T05:28:51;10.15;;;3.80;;
49678;SDS011;35570;48.218;16.326;2023-06-22T05:31:17;7.45;;;3.83;;
49678;SDS011;35570;48.218;16.326;2023-06-22T05:33:45;6.50;;;3.75;;
49678;SDS011;35570;48.218;16.326;2023-06-22T05:36:11;7.85;;;3.88;;
49678;SDS011;35570;48.218;16.326;2023-06-22T05:38:38;11.90;;;4.07;;
49678;SDS011;35570;48.218;16.326;2023-06-22T05:41:04;10.32;;;3.75;;
49678;SDS011;35570;48.218;16.326;2023-06-22T05:43:30;10.77;;;3.88;;
49678;SDS011;35570;48.218;16.326;2023-06-22T05:45:56;10.02;;;4.57;;
49678;SDS011;35570;48.218;16.326;2023-06-22T05:48:22;12.70;;;4.78;;
49678;SDS011;35570;48.218;16.326;2023-06-22T05:50:48;8.32;;;4.22;;
49678;SDS011;35570;48.218;16.326;2023-06-22T05:53:14;11.88;;;4.80;;
49678;SDS011;35570;48.218;16.326;2023-06-22T05:55:39;11.43;;;4.32;;
49678;SDS011;35570;48.218;16.326;2023-06-22T05:58:05;6.63;;;4.07;;
49678;SDS011;35570;48.218;16.326;2023-06-22T06:00:31;10.50;;;4.28;;
49678;SDS011;35570;48.218;16.326;2023-06-22T06:02:57;10.00;;;3.78;;
49678;SDS011;35570;48.218;16.326;2023-06-22T06:05:28;10.13;;;3.75;;
49678;SDS011;35570;48.218;16.326;2023-06-22T06:07:55;10.18;;;3.58;;
49678;SDS011;35570;48.218;16.326;2023-06-22T06:10:21;10.68;;;3.83;;
49678;SDS011;35570;48.218;16.326;2023-06-22T06:12:46;11.32;;;4.45;;
49678;SDS011;35570;48.218;16.326;2023-06-22T06:15:12;9.55;;;3.92;;
49678;SDS011;35570;48.218;16.326;2023-06-22T06:17:53;9.77;;;3.85;;
49678;SDS011;35570;48.218;16.326;2023-06-22T06:20:23;8.25;;;3.70;;
49678;SDS011;35570;48.218;16.326;2023-06-22T06:22:50;7.60;;;3.90;;
49678;SDS011;35570;48.218;16.326;2023-06-22T06:25:16;12.07;;;4.00;;
49678;SDS011;35570;48.218;16.326;2023-06-22T06:27:45;9.10;;;4.10;;
49678;SDS011;35570;48.218;16.326;2023-06-22T06:30:11;8.32;;;3.70;;
49678;SDS011;35570;48.218;16.326;2023-06-22T06:32:38;11.18;;;4.40;;
49678;SDS011;35570;48.218;16.326;2023-06-22T06:35:08;13.57;;;4.78;;
49678;SDS011;35570;48.218;16.326;2023-06-22T06:37:41;10.05;;;5.03;;
49678;SDS011;35570;48.218;16.326;2023-06-22T06:40:09;9.52;;;5.18;;
49678;SDS011;35570;48.218;16.326;2023-06-22T06:42:36;11.38;;;4.97;;
49678;SDS011;35570;48.218;16.326;2023-06-22T06:45:16;10.43;;;4.47;;
49678;SDS011;35570;48.218;16.326;2023-06-22T06:47:43;13.55;;;4.82;;
49678;SDS011;35570;48.218;16.326;2023-06-22T06:50:09;10.82;;;5.05;;
49678;SDS011;35570;48.218;16.326;2023-06-22T06:52:35;15.80;;;5.28;;
49678;SDS011;35570;48.218;16.326;2023-06-22T06:55:01;15.27;;;5.22;;
49678;SDS011;35570;48.218;16.326;2023-06-22T06:57:30;11.18;;;5.47;;
49678;SDS011;35570;48.218;16.326;2023-06-22T06:59:56;14.05;;;6.43;;
49678;SDS011;35570;48.218;16.326;2023-06-22T07:02:22;19.58;;;6.93;;
49678;SDS011;35570;48.218;16.326;2023-06-22T07:04:48;22.45;;;7.82;;
49678;SDS011;35570;48.218;16.326;2023-06-22T07:07:14;20.15;;;8.45;;
49678;SDS011;35570;48.218;16.326;2023-06-22T07:09:39;14.65;;;8.27;;
49678;SDS011;35570;48.218;16.326;2023-06-22T07:12:05;15.55;;;8.95;;
49678;SDS011;35570;48.218;16.326;2023-06-22T07:14:31;17.45;;;9.48;;
49678;SDS011;35570;48.218;16.326;2023-06-22T07:16:57;16.98;;;8.43;;
49678;SDS011;35570;48.218;16.326;2023-06-22T07:19:29;20.23;;;8.70;;
49678;SDS011;35570;48.218;16.326;2023-06-22T07:21:56;17.95;;;8.98;;
49678;SDS011;35570;48.218;16.326;2023-06-22T07:24:22;17.08;;;9.70;;
49678;SDS011;35570;48.218;16.326;2023-06-22T07:26:49;16.25;;;9.20;;
49678;SDS011;35570;48.218;16.326;2023-06-22T07:29:18;22.83;;;10.98;;
49678;SDS011;35570;48.218;16.326;2023-06-22T07:31:47;15.55;;;8.85;;
49678;SDS011;35570;48.218;16.326;2023-06-22T07:34:14;14.15;;;7.90;;
49678;SDS011;35570;48.218;16.326;2023-06-22T07:36:40;14.27;;;7.38;;
49678;SDS011;35570;48.218;16.326;2023-06-22T07:39:05;13.02;;;7.05;;
49678;SDS011;35570;48.218;16.326;2023-06-22T07:41:32;13.35;;;7.20;;
49678;SDS011;35570;48.218;16.326;2023-06-22T07:43:57;12.75;;;7.05;;
49678;SDS011;35570;48.218;16.326;2023-06-22T07:46:23;17.67;;;7.15;;
49678;SDS011;35570;48.218;16.326;2023-06-22T07:48:49;15.00;;;6.70;;
49678;SDS011;35570;48.218;16.326;2023-06-22T07:51:14;15.93;;;6.40;;
49678;SDS011;35570;48.218;16.326;2023-06-22T07:53:40;14.98;;;7.47;;
49678;SDS011;35570;48.218;16.326;2023-06-22T07:56:07;12.90;;;6.57;;
49678;SDS011;35570;48.218;16.326;2023-06-22T07:58:35;13.55;;;6.72;;
49678;SDS011;35570;48.218;16.326;2023-06-22T08:01:01;14.23;;;6.75;;
49678;SDS011;35570;48.218;16.326;2023-06-22T08:03:26;11.50;;;7.22;;
49678;SDS011;35570;48.218;16.326;2023-06-22T08:05:52;12.57;;;6.40;;
49678;SDS011;35570;48.218;16.326;2023-06-22T08:08:17;14.13;;;6.68;;
49678;SDS011;35570;48.218;16.326;2023-06-22T08:10:43;12.18;;;6.93;;
49678;SDS011;35570;48.218;16.326;2023-06-22T08:13:09;17.40;;;8.40;;
49678;SDS011;35570;48.218;16.326;2023-06-22T08:15:35;12.10;;;6.55;;
49678;SDS011;35570;48.218;16.326;2023-06-22T08:18:01;17.92;;;6.90;;
49678;SDS011;35570;48.218;16.326;2023-06-22T08:20:26;13.18;;;6.78;;
49678;SDS011;35570;48.218;16.326;2023-06-22T08:22:53;15.48;;;7.07;;
49678;SDS011;35570;48.218;16.326;2023-06-22T08:25:20;15.43;;;6.35;;
49678;SDS011;35570;48.218;16.326;2023-06-22T08:27:46;16.63;;;7.22;;
49678;SDS011;35570;48.218;16.326;2023-06-22T08:30:13;14.35;;;7.00;;
49678;SDS011;35570;48.218;16.326;2023-06-22T08:32:39;17.08;;;7.07;;
49678;SDS011;35570;48.218;16.326;2023-06-22T08:35:05;18.73;;;7.13;;
49678;SDS011;35570;48.218;16.326;2023-06-22T08:37:33;17.45;;;6.88;;
49678;SDS011;35570;48.218;16.326;2023-06-22T08:40:01;12.23;;;6.75;;
49678;SDS011;35570;48.218;16.326;2023-06-22T08:42:33;16.67;;;7.07;;
49678;SDS011;35570;48.218;16.326;2023-06-22T08:44:58;10.93;;;7.13;;
49678;SDS011;35570;48.218;16.326;2023-06-22T08:47:24;13.70;;;6.45;;
49678;SDS011;35570;48.218;16.326;2023-06-22T08:49:52;13.85;;;6.18;;
49678;SDS011;35570;48.218;16.326;2023-06-22T08:52:18;10.77;;;6.18;;
49678;SDS011;35570;48.218;16.326;2023-06-22T08:54:45;12.38;;;5.80;;
49678;SDS011;35570;48.218;16.326;2023-06-22T08:57:11;14.82;;;7.00;;
49678;SDS011;35570;48.218;16.326;2023-06-22T08:59:36;12.88;;;6.80;;
49678;SDS011;35570;48.218;16.326;2023-06-22T09:02:02;10.38;;;6.32;;
49678;SDS011;35570;48.218;16.326;2023-06-22T09:04:28;10.43;;;6.60;;
49678;SDS011;35570;48.218;16.326;2023-06-22T09:06:53;11.52;;;7.07;;
49678;SDS011;35570;48.218;16.326;2023-06-22T09:09:20;10.38;;;6.53;;
49678;SDS011;35570;48.218;16.326;2023-06-22T09:11:47;18.13;;;7.28;;
49678;SDS011;35570;48.218;16.326;2023-06-22T09:14:12;14.48;;;6.97;;
49678;SDS011;35570;48.218;16.326;2023-06-22T09:16:38;17.85;;;7.32;;
49678;SDS011;35570;48.218;16.326;2023-06-22T09:19:04;13.65;;;6.40;;
49678;SDS011;35570;48.218;16.326;2023-06-22T09:21:30;12.52;;;6.57;;
49678;SDS011;35570;48.218;16.326;2023-06-22T09:23:56;15.43;;;8.13;;
49678;SDS011;35570;48.218;16.326;2023-06-22T09:26:21;13.50;;;7.30;;
49678;SDS011;35570;48.218;16.326;2023-06-22T09:28:50;11.95;;;6.40;;
49678;SDS011;35570;48.218;16.326;2023-06-22T09:31:16;8.77;;;5.90;;
49678;SDS011;35570;48.218;16.326;2023-06-22T09:33:42;13.77;;;6.18;;
49678;SDS011;35570;48.218;16.326;2023-06-22T09:36:08;11.32;;;6.82;;
49678;SDS011;35570;48.218;16.326;2023-06-22T09:38:37;15.65;;;6.68;;
49678;SDS011;35570;48.218;16.326;2023-06-22T09:41:03;12.90;;;6.47;;
49678;SDS011;35570;48.218;16.326;2023-06-22T09:43:30;13.38;;;6.55;;
49678;SDS011;35570;48.218;16.326;2023-06-22T09:45:57;11.80;;;6.57;;
49678;SDS011;35570;48.218;16.326;2023-06-22T09:48:23;10.93;;;6.35;;
49678;SDS011;35570;48.218;16.326;2023-06-22T09:50:49;12.82;;;6.03;;
49678;SDS011;35570;48.218;16.326;2023-06-22T09:53:14;14.18;;;8.32;;
49678;SDS011;35570;48.218;16.326;2023-06-22T09:55:40;16.40;;;9.27;;
49678;SDS011;35570;48.218;16.326;2023-06-22T09:58:06;11.25;;;6.53;;
49678;SDS011;35570;48.218;16.326;2023-06-22T10:00:31;14.93;;;7.03;;
49678;SDS011;35570;48.218;16.326;2023-06-22T10:02:57;12.25;;;5.82;;
49678;SDS011;35570;48.218;16.326;2023-06-22T10:05:23;14.60;;;6.07;;
49678;SDS011;35570;48.218;16.326;2023-06-22T10:07:49;12.23;;;5.47;;
49678;SDS011;35570;48.218;16.326;2023-06-22T10:10:15;10.95;;;6.15;;
49678;SDS011;35570;48.218;16.326;2023-06-22T10:12:42;14.77;;;6.22;;
49678;SDS011;35570;48.218;16.326;2023-06-22T10:15:10;12.48;;;6.43;;
49678;SDS011;35570;48.218;16.326;2023-06-22T10:17:36;10.60;;;6.03;;
49678;SDS011;35570;48.218;16.326;2023-06-22T10:20:02;12.85;;;6.25;;
49678;SDS011;35570;48.218;16.326;2023-06-22T10:22:41;8.63;;;6.18;;
49678;SDS011;35570;48.218;16.326;2023-06-22T10:25:07;9.73;;;5.20;;
49678;SDS011;35570;48.218;16.326;2023-06-22T10:27:34;11.23;;;6.30;;
49678;SDS011;35570;48.218;16.326;2023-06-22T10:30:00;8.65;;;5.75;;
49678;SDS011;35570;48.218;16.326;2023-06-22T10:32:25;11.77;;;5.43;;
49678;SDS011;35570;48.218;16.326;2023-06-22T10:34:53;9.55;;;5.68;;
49678;SDS011;35570;48.218;16.326;2023-06-22T10:37:18;11.43;;;5.15;;
49678;SDS011;35570;48.218;16.326;2023-06-22T10:39:44;17.38;;;5.35;;
49678;SDS011;35570;48.218;16.326;2023-06-22T10:42:09;13.95;;;4.60;;
49678;SDS011;35570;48.218;16.326;2023-06-22T10:44:35;8.35;;;4.65;;
49678;SDS011;35570;48.218;16.326;2023-06-22T10:47:01;12.57;;;4.82;;
49678;SDS011;35570;48.218;16.326;2023-06-22T10:49:26;11.48;;;4.65;;
49678;SDS011;35570;48.218;16.326;2023-06-22T10:51:52;12.48;;;5.78;;
49678;SDS011;35570;48.218;16.326;2023-06-22T10:54:17;10.52;;;5.30;;
49678;SDS011;35570;48.218;16.326;2023-06-22T10:56:44;10.43;;;5.03;;
49678;SDS011;35570;48.218;16.326;2023-06-22T10:59:10;11.00;;;6.28;;
49678;SDS011;35570;48.218;16.326;2023-06-22T11:01:35;8.20;;;4.15;;
49678;SDS011;35570;48.218;16.326;2023-06-22T11:04:01;7.75;;;4.78;;
49678;SDS011;35570;48.218;16.326;2023-06-22T11:06:27;12.07;;;4.32;;
49678;SDS011;35570;48.218;16.326;2023-06-22T11:08:53;9.35;;;4.60;;
49678;SDS011;35570;48.218;16.326;2023-06-22T11:11:19;8.50;;;3.40;;
49678;SDS011;35570;48.218;16.326;2023-06-22T11:13:44;7.45;;;3.95;;
49678;SDS011;35570;48.218;16.326;2023-06-22T11:16:10;10.65;;;4.53;;
49678;SDS011;35570;48.218;16.326;2023-06-22T11:18:36;9.85;;;3.20;;
49678;SDS011;35570;48.218;16.326;2023-06-22T11:21:01;11.77;;;3.63;;
49678;SDS011;35570;48.218;16.326;2023-06-22T11:23:27;8.82;;;3.80;;
49678;SDS011;35570;48.218;16.326;2023-06-22T11:25:53;6.57;;;3.53;;
49678;SDS011;35570;48.218;16.326;2023-06-22T11:28:19;10.25;;;4.07;;
49678;SDS011;35570;48.218;16.326;2023-06-22T11:30:45;8.73;;;4.05;;
49678;SDS011;35570;48.218;16.326;2023-06-22T11:33:11;10.88;;;4.20;;
49678;SDS011;35570;48.218;16.326;2023-06-22T11:35:36;9.13;;;4.60;;
49678;SDS011;35570;48.218;16.326;2023-06-22T11:38:02;10.20;;;4.72;;
49678;SDS011;35570;48.218;16.326;2023-06-22T11:40:29;10.32;;;4.72;;
49678;SDS011;35570;48.218;16.326;2023-06-22T11:42:54;8.38;;;4.55;;
49678;SDS011;35570;48.218;16.326;2023-06-22T11:45:20;10.38;;;4.72;;
49678;SDS011;35570;48.218;16.326;2023-06-22T11:47:46;8.30;;;4.07;;
49678;SDS011;35570;48.218;16.326;2023-06-22T11:50:12;10.10;;;4.75;;
49678;SDS011;35570;48.218;16.326;2023-06-22T11:52:38;8.68;;;4.60;;
49678;SDS011;35570;48.218;16.326;2023-06-22T11:55:03;9.35;;;3.70;;
49678;SDS011;35570;48.218;16.326;2023-06-22T11:57:32;9.98;;;3.42;;
49678;SDS011;35570;48.218;16.326;2023-06-22T11:59:59;8.52;;;3.22;;
49678;SDS011;35570;48.218;16.326;2023-06-22T12:02:25;10.57;;;3.30;;
49678;SDS011;35570;48.218;16.326;2023-06-22T12:04:50;10.60;;;3.40;;
49678;SDS011;35570;48.218;16.326;2023-06-22T12:07:17;7.22;;;3.22;;
49678;SDS011;35570;48.218;16.326;2023-06-22T12:09:43;8.50;;;4.13;;
49678;SDS011;35570;48.218;16.326;2023-06-22T12:12:09;10.85;;;3.50;;
49678;SDS011;35570;48.218;16.326;2023-06-22T12:14:35;8.52;;;3.40;;
49678;SDS011;35570;48.218;16.326;2023-06-22T12:17:00;9.18;;;3.30;;
49678;SDS011;35570;48.218;16.326;2023-06-22T12:19:26;8.63;;;3.47;;
49678;SDS011;35570;48.218;16.326;2023-06-22T12:21:52;9.88;;;3.20;;
49678;SDS011;35570;48.218;16.326;2023-06-22T12:24:17;14.15;;;3.60;;
49678;SDS011;35570;48.218;16.326;2023-06-22T12:26:43;7.85;;;3.10;;
49678;SDS011;35570;48.218;16.326;2023-06-22T12:29:09;7.28;;;3.03;;
49678;SDS011;35570;48.218;16.326;2023-06-22T12:31:35;7.80;;;3.38;;
49678;SDS011;35570;48.218;16.326;2023-06-22T12:34:03;9.73;;;3.45;;
49678;SDS011;35570;48.218;16.326;2023-06-22T12:36:29;7.07;;;2.70;;
49678;SDS011;35570;48.218;16.326;2023-06-22T12:38:55;12.60;;;3.25;;
49678;SDS011;35570;48.218;16.326;2023-06-22T12:41:20;9.55;;;3.22;;
49678;SDS011;35570;48.218;16.326;2023-06-22T12:43:46;8.00;;;3.20;;
49678;SDS011;35570;48.218;16.326;2023-06-22T12:46:12;10.10;;;3.25;;
49678;SDS011;35570;48.218;16.326;2023-06-22T12:48:37;10.15;;;3.88;;
49678;SDS011;35570;48.218;16.326;2023-06-22T12:51:08;10.65;;;3.47;;
49678;SDS011;35570;48.218;16.326;2023-06-22T12:53:35;8.32;;;3.25;;
49678;SDS011;35570;48.218;16.326;2023-06-22T12:56:00;6.95;;;3.20;;
49678;SDS011;35570;48.218;16.326;2023-06-22T12:58:26;7.40;;;2.88;;
49678;SDS011;35570;48.218;16.326;2023-06-22T13:00:52;8.98;;;3.00;;
49678;SDS011;35570;48.218;16.326;2023-06-22T13:03:18;7.85;;;3.35;;
49678;SDS011;35570;48.218;16.326;2023-06-22T13:05:44;8.52;;;2.97;;
49678;SDS011;35570;48.218;16.326;2023-06-22T13:08:09;10.18;;;3.55;;
49678;SDS011;35570;48.218;16.326;2023-06-22T13:10:36;6.60;;;3.08;;
49678;SDS011;35570;48.218;16.326;2023-06-22T13:13:01;7.90;;;3.50;;
49678;SDS011;35570;48.218;16.326;2023-06-22T13:15:30;10.65;;;3.83;;
49678;SDS011;35570;48.218;16.326;2023-06-22T13:17:56;8.75;;;3.65;;
49678;SDS011;35570;48.218;16.326;2023-06-22T13:20:21;6.82;;;3.40;;
49678;SDS011;35570;48.218;16.326;2023-06-22T13:22:47;11.38;;;3.75;;
49678;SDS011;35570;48.218;16.326;2023-06-22T13:25:13;12.05;;;3.40;;
49678;SDS011;35570;48.218;16.326;2023-06-22T13:27:40;10.15;;;3.60;;
49678;SDS011;35570;48.218;16.326;2023-06-22T13:30:06;9.15;;;3.60;;
49678;SDS011;35570;48.218;16.326;2023-06-22T13:32:33;11.10;;;4.30;;
49678;SDS011;35570;48.218;16.326;2023-06-22T13:34:58;11.45;;;3.58;;
49678;SDS011;35570;48.218;16.326;2023-06-22T13:37:25;7.45;;;3.72;;
49678;SDS011;35570;48.218;16.326;2023-06-22T13:39:51;7.28;;;3.30;;
49678;SDS011;35570;48.218;16.326;2023-06-22T13:42:16;11.52;;;3.50;;
49678;SDS011;35570;48.218;16.326;2023-06-22T13:44:42;8.77;;;3.45;;
49678;SDS011;35570;48.218;16.326;2023-06-22T13:47:08;7.20;;;3.40;;
49678;SDS011;35570;48.218;16.326;2023-06-22T13:49:33;6.15;;;3.10;;
49678;SDS011;35570;48.218;16.326;2023-06-22T13:51:59;9.77;;;3.33;;
49678;SDS011;35570;48.218;16.326;2023-06-22T13:54:25;6.68;;;3.30;;
49678;SDS011;35570;48.218;16.326;2023-06-22T13:56:51;13.82;;;3.65;;
49678;SDS011;35570;48.218;16.326;2023-06-22T13:59:16;10.00;;;3.20;;
49678;SDS011;35570;48.218;16.326;2023-06-22T14:01:42;12.98;;;3.40;;
49678;SDS011;35570;48.218;16.326;2023-06-22T14:04:08;7.53;;;2.95;;
49678;SDS011;35570;48.218;16.326;2023-06-22T14:06:34;9.27;;;3.30;;
49678;SDS011;35570;48.218;16.326;2023-06-22T14:09:00;10.52;;;4.07;;
49678;SDS011;35570;48.218;16.326;2023-06-22T14:11:27;10.88;;;3.17;;
49678;SDS011;35570;48.218;16.326;2023-06-22T14:13:53;6.82;;;3.20;;
49678;SDS011;35570;48.218;16.326;2023-06-22T14:16:18;9.07;;;3.55;;
49678;SDS011;35570;48.218;16.326;2023-06-22T14:18:44;7.80;;;3.58;;
49678;SDS011;35570;48.218;16.326;2023-06-22T14:21:10;10.52;;;3.63;;
49678;SDS011;35570;48.218;16.326;2023-06-22T14:23:36;6.32;;;3.28;;
49678;SDS011;35570;48.218;16.326;2023-06-22T14:26:02;12.15;;;3.67;;
49678;SDS011;35570;48.218;16.326;2023-06-22T14:28:28;9.93;;;3.75;;